sensor_id;sensor_type;location;lat;lon;timestamp;temperature;humidity
32394;DHT22;18853;45.426;9.206;2022-09-01T00:01:04;30.40;48.50
32394;DHT22;18853;45.426;9.206;2022-09-01T00:03:33;30.30;48.30
32394;DHT22;18853;45.426;9.206;2022-09-01T00:05:59;30.40;48.20
32394;DHT22;18853;45.426;9.206;2022-09-01T00:08:25;30.30;47.90
32394;DHT22;18853;45.426;9.206;2022-09-01T00:10:50;30.30;47.90
32394;DHT22;18853;45.426;9.206;2022-09-01T00:13:16;30.30;47.80
32394;DHT22;18853;45.426;9.206;2022-09-01T00:15:42;30.30;47.70
32394;DHT22;18853;45.426;9.206;2022-09-01T00:18:07;30.30;47.70
32394;DHT22;18853;45.426;9.206;2022-09-01T00:20:34;30.30;48.20
32394;DHT22;18853;45.426;9.206;2022-09-01T00:23:00;30.30;47.50
32394;DHT22;18853;45.426;9.206;2022-09-01T00:25:27;30.30;47.50
32394;DHT22;18853;45.426;9.206;2022-09-01T00:27:52;30.30;47.60
32394;DHT22;18853;45.426;9.206;2022-09-01T00:30:18;30.20;47.60
32394;DHT22;18853;45.426;9.206;2022-09-01T00:32:44;30.20;47.60
32394;DHT22;18853;45.426;9.206;2022-09-01T00:35:12;30.20;47.60
32394;DHT22;18853;45.426;9.206;2022-09-01T00:37:37;30.20;47.70
32394;DHT22;18853;45.426;9.206;2022-09-01T00:40:03;30.20;47.70
32394;DHT22;18853;45.426;9.206;2022-09-01T00:42:29;30.20;47.70
32394;DHT22;18853;45.426;9.206;2022-09-01T00:44:55;30.10;47.70
32394;DHT22;18853;45.426;9.206;2022-09-01T00:47:20;30.00;47.90
32394;DHT22;18853;45.426;9.206;2022-09-01T00:49:46;30.00;48.00
32394;DHT22;18853;45.426;9.206;2022-09-01T00:52:13;30.00;48.10
32394;DHT22;18853;45.426;9.206;2022-09-01T00:54:40;30.00;48.10
32394;DHT22;18853;45.426;9.206;2022-09-01T00:57:07;29.90;48.20
32394;DHT22;18853;45.426;9.206;2022-09-01T00:59:32;29.90;48.30
32394;DHT22;18853;45.426;9.206;2022-09-01T01:02:00;29.90;48.30
32394;DHT22;18853;45.426;9.206;2022-09-01T01:04:25;30.00;48.40
32394;DHT22;18853;45.426;9.206;2022-09-01T01:06:53;30.00;48.50
32394;DHT22;18853;45.426;9.206;2022-09-01T01:09:26;29.90;48.40
32394;DHT22;18853;45.426;9.206;2022-09-01T01:11:52;29.90;48.40
32394;DHT22;18853;45.426;9.206;2022-09-01T01:14:19;29.90;48.50
32394;DHT22;18853;45.426;9.206;2022-09-01T01:16:45;29.90;48.40
32394;DHT22;18853;45.426;9.206;2022-09-01T01:19:29;30.00;48.50
32394;DHT22;18853;45.426;9.206;2022-09-01T01:22:23;30.00;48.40
32394;DHT22;18853;45.426;9.206;2022-09-01T01:25:10;29.90;48.40
32394;DHT22;18853;45.426;9.206;2022-09-01T01:27:37;29.90;48.40
32394;DHT22;18853;45.426;9.206;2022-09-01T01:30:04;29.90;48.50
32394;DHT22;18853;45.426;9.206;2022-09-01T01:32:32;29.90;48.50
32394;DHT22;18853;45.426;9.206;2022-09-01T01:34:57;29.90;48.40
32394;DHT22;18853;45.426;9.206;2022-09-01T01:37:24;29.90;48.00
32394;DHT22;18853;45.426;9.206;2022-09-01T01:39:51;29.90;48.10
32394;DHT22;18853;45.426;9.206;2022-09-01T01:42:17;29.90;48.30
32394;DHT22;18853;45.426;9.206;2022-09-01T01:44:42;29.90;47.90
32394;DHT22;18853;45.426;9.206;2022-09-01T01:47:10;29.90;47.90
32394;DHT22;18853;45.426;9.206;2022-09-01T01:49:37;29.90;47.90
32394;DHT22;18853;45.426;9.206;2022-09-01T01:52:06;29.90;48.00
32394;DHT22;18853;45.426;9.206;2022-09-01T01:54:31;29.90;48.10
32394;DHT22;18853;45.426;9.206;2022-09-01T01:56:57;29.90;47.80
32394;DHT22;18853;45.426;9.206;2022-09-01T01:59:23;29.90;47.80
32394;DHT22;18853;45.426;9.206;2022-09-01T02:01:49;29.90;47.60
32394;DHT22;18853;45.426;9.206;2022-09-01T02:04:15;30.00;47.50
32394;DHT22;18853;45.426;9.206;2022-09-01T02:06:42;29.90;47.60
32394;DHT22;18853;45.426;9.206;2022-09-01T02:09:10;30.00;47.60
32394;DHT22;18853;45.426;9.206;2022-09-01T02:11:36;29.90;47.40
32394;DHT22;18853;45.426;9.206;2022-09-01T02:14:02;29.90;47.40
32394;DHT22;18853;45.426;9.206;2022-09-01T02:16:28;29.90;47.30
32394;DHT22;18853;45.426;9.206;2022-09-01T02:18:54;30.00;47.10
32394;DHT22;18853;45.426;9.206;2022-09-01T02:21:22;30.00;47.00
32394;DHT22;18853;45.426;9.206;2022-09-01T02:23:49;30.00;47.20
32394;DHT22;18853;45.426;9.206;2022-09-01T02:26:15;30.00;47.20
32394;DHT22;18853;45.426;9.206;2022-09-01T02:28:44;29.90;47.10
32394;DHT22;18853;45.426;9.206;2022-09-01T02:31:11;29.90;47.20
32394;DHT22;18853;45.426;9.206;2022-09-01T02:33:37;29.90;47.10
32394;DHT22;18853;45.426;9.206;2022-09-01T02:36:10;30.00;47.10
32394;DHT22;18853;45.426;9.206;2022-09-01T02:38:38;29.90;47.20
32394;DHT22;18853;45.426;9.206;2022-09-01T02:41:07;29.90;47.40
32394;DHT22;18853;45.426;9.206;2022-09-01T02:43:32;29.90;47.60
32394;DHT22;18853;45.426;9.206;2022-09-01T02:45:59;29.90;47.60
32394;DHT22;18853;45.426;9.206;2022-09-01T02:48:26;29.80;47.80
32394;DHT22;18853;45.426;9.206;2022-09-01T02:50:53;29.80;47.90
32394;DHT22;18853;45.426;9.206;2022-09-01T02:53:21;29.80;48.90
32394;DHT22;18853;45.426;9.206;2022-09-01T02:55:47;29.80;48.20
32394;DHT22;18853;45.426;9.206;2022-09-01T02:58:12;29.70;48.30
32394;DHT22;18853;45.426;9.206;2022-09-01T03:00:43;29.80;48.30
32394;DHT22;18853;45.426;9.206;2022-09-01T03:03:09;29.80;48.30
32394;DHT22;18853;45.426;9.206;2022-09-01T03:05:37;29.70;48.10
32394;DHT22;18853;45.426;9.206;2022-09-01T03:08:07;29.50;48.00
32394;DHT22;18853;45.426;9.206;2022-09-01T03:10:38;29.50;48.30
32394;DHT22;18853;45.426;9.206;2022-09-01T03:13:08;29.50;48.40
32394;DHT22;18853;45.426;9.206;2022-09-01T03:15:34;29.50;48.30
32394;DHT22;18853;45.426;9.206;2022-09-01T03:18:01;29.50;48.00
32394;DHT22;18853;45.426;9.206;2022-09-01T03:20:27;29.50;47.60
32394;DHT22;18853;45.426;9.206;2022-09-01T03:22:55;29.50;47.30
32394;DHT22;18853;45.426;9.206;2022-09-01T03:25:22;29.50;47.20
32394;DHT22;18853;45.426;9.206;2022-09-01T03:27:50;29.50;47.20
32394;DHT22;18853;45.426;9.206;2022-09-01T03:30:16;29.50;47.80
32394;DHT22;18853;45.426;9.206;2022-09-01T03:32:41;29.50;47.10
32394;DHT22;18853;45.426;9.206;2022-09-01T03:35:08;29.60;47.30
32394;DHT22;18853;45.426;9.206;2022-09-01T03:37:34;29.60;47.10
32394;DHT22;18853;45.426;9.206;2022-09-01T03:40:02;29.60;47.00
32394;DHT22;18853;45.426;9.206;2022-09-01T03:42:29;29.60;47.20
32394;DHT22;18853;45.426;9.206;2022-09-01T03:44:55;29.60;47.20
32394;DHT22;18853;45.426;9.206;2022-09-01T03:47:21;29.60;47.00
32394;DHT22;18853;45.426;9.206;2022-09-01T03:49:48;29.50;46.90
32394;DHT22;18853;45.426;9.206;2022-09-01T03:52:15;29.60;46.90
32394;DHT22;18853;45.426;9.206;2022-09-01T03:54:41;29.60;46.90
32394;DHT22;18853;45.426;9.206;2022-09-01T03:57:08;29.60;46.80
32394;DHT22;18853;45.426;9.206;2022-09-01T03:59:34;29.60;46.70
32394;DHT22;18853;45.426;9.206;2022-09-01T04:02:00;29.60;46.70
32394;DHT22;18853;45.426;9.206;2022-09-01T04:04:27;29.60;46.50
32394;DHT22;18853;45.426;9.206;2022-09-01T04:06:55;29.60;47.10
32394;DHT22;18853;45.426;9.206;2022-09-01T04:09:21;29.60;46.50
32394;DHT22;18853;45.426;9.206;2022-09-01T04:11:46;29.60;46.60
32394;DHT22;18853;45.426;9.206;2022-09-01T04:14:12;29.60;46.60
32394;DHT22;18853;45.426;9.206;2022-09-01T04:16:38;29.60;46.50
32394;DHT22;18853;45.426;9.206;2022-09-01T04:19:23;29.60;46.40
32394;DHT22;18853;45.426;9.206;2022-09-01T04:21:53;29.60;46.20
32394;DHT22;18853;45.426;9.206;2022-09-01T04:24:19;29.50;46.20
32394;DHT22;18853;45.426;9.206;2022-09-01T04:26:45;29.50;46.40
32394;DHT22;18853;45.426;9.206;2022-09-01T04:29:13;29.50;46.50
32394;DHT22;18853;45.426;9.206;2022-09-01T04:31:39;29.50;46.50
32394;DHT22;18853;45.426;9.206;2022-09-01T04:34:06;29.50;46.50
32394;DHT22;18853;45.426;9.206;2022-09-01T04:36:38;29.50;46.60
32394;DHT22;18853;45.426;9.206;2022-09-01T04:39:06;29.50;46.90
32394;DHT22;18853;45.426;9.206;2022-09-01T04:41:33;29.50;46.70
32394;DHT22;18853;45.426;9.206;2022-09-01T04:44:00;29.50;46.60
32394;DHT22;18853;45.426;9.206;2022-09-01T04:46:30;29.50;46.80
32394;DHT22;18853;45.426;9.206;2022-09-01T04:48:57;29.50;46.90
32394;DHT22;18853;45.426;9.206;2022-09-01T04:51:23;29.50;46.90
32394;DHT22;18853;45.426;9.206;2022-09-01T04:53:53;29.50;46.90
32394;DHT22;18853;45.426;9.206;2022-09-01T04:56:19;29.50;46.90
32394;DHT22;18853;45.426;9.206;2022-09-01T04:58:47;29.50;46.90
32394;DHT22;18853;45.426;9.206;2022-09-01T05:01:18;29.50;46.90
32394;DHT22;18853;45.426;9.206;2022-09-01T05:03:44;29.40;47.00
32394;DHT22;18853;45.426;9.206;2022-09-01T05:06:17;29.40;47.10
32394;DHT22;18853;45.426;9.206;2022-09-01T05:08:43;29.40;47.10
32394;DHT22;18853;45.426;9.206;2022-09-01T05:11:12;29.40;47.20
32394;DHT22;18853;45.426;9.206;2022-09-01T05:13:41;29.40;47.20
32394;DHT22;18853;45.426;9.206;2022-09-01T05:16:08;29.40;47.20
32394;DHT22;18853;45.426;9.206;2022-09-01T05:18:40;29.40;47.20
32394;DHT22;18853;45.426;9.206;2022-09-01T05:21:09;29.40;47.30
32394;DHT22;18853;45.426;9.206;2022-09-01T05:23:38;29.40;47.30
32394;DHT22;18853;45.426;9.206;2022-09-01T05:26:05;29.30;47.80
32394;DHT22;18853;45.426;9.206;2022-09-01T05:28:39;29.20;47.80
32394;DHT22;18853;45.426;9.206;2022-09-01T05:31:05;29.10;48.10
32394;DHT22;18853;45.426;9.206;2022-09-01T05:33:31;29.00;48.30
32394;DHT22;18853;45.426;9.206;2022-09-01T05:35:58;28.90;48.50
32394;DHT22;18853;45.426;9.206;2022-09-01T05:38:26;28.90;48.70
32394;DHT22;18853;45.426;9.206;2022-09-01T05:40:59;28.80;48.80
32394;DHT22;18853;45.426;9.206;2022-09-01T05:43:27;28.80;49.00
32394;DHT22;18853;45.426;9.206;2022-09-01T05:45:54;28.70;49.20
32394;DHT22;18853;45.426;9.206;2022-09-01T05:48:20;28.70;49.60
32394;DHT22;18853;45.426;9.206;2022-09-01T05:50:48;28.70;49.70
32394;DHT22;18853;45.426;9.206;2022-09-01T05:53:14;28.60;49.80
32394;DHT22;18853;45.426;9.206;2022-09-01T05:55:42;28.60;49.40
32394;DHT22;18853;45.426;9.206;2022-09-01T05:58:11;28.60;49.50
32394;DHT22;18853;45.426;9.206;2022-09-01T06:00:39;28.60;49.80
32394;DHT22;18853;45.426;9.206;2022-09-01T06:03:05;28.50;49.80
32394;DHT22;18853;45.426;9.206;2022-09-01T06:05:33;28.50;50.00
32394;DHT22;18853;45.426;9.206;2022-09-01T06:08:01;28.50;50.40
32394;DHT22;18853;45.426;9.206;2022-09-01T06:10:27;28.40;50.50
32394;DHT22;18853;45.426;9.206;2022-09-01T06:12:53;28.40;50.30
32394;DHT22;18853;45.426;9.206;2022-09-01T06:15:19;28.40;50.60
32394;DHT22;18853;45.426;9.206;2022-09-01T06:17:45;28.40;50.50
32394;DHT22;18853;45.426;9.206;2022-09-01T06:20:11;28.40;50.40
32394;DHT22;18853;45.426;9.206;2022-09-01T06:22:37;28.30;50.70
32394;DHT22;18853;45.426;9.206;2022-09-01T06:25:04;28.30;50.80
32394;DHT22;18853;45.426;9.206;2022-09-01T06:27:33;28.30;50.90
32394;DHT22;18853;45.426;9.206;2022-09-01T06:30:04;28.30;50.60
32394;DHT22;18853;45.426;9.206;2022-09-01T06:32:39;28.30;50.70
32394;DHT22;18853;45.426;9.206;2022-09-01T06:35:09;28.30;50.30
32394;DHT22;18853;45.426;9.206;2022-09-01T06:37:38;28.40;50.40
32394;DHT22;18853;45.426;9.206;2022-09-01T06:40:06;28.50;49.60
32394;DHT22;18853;45.426;9.206;2022-09-01T06:42:34;28.50;49.50
32394;DHT22;18853;45.426;9.206;2022-09-01T06:45:00;28.50;49.30
32394;DHT22;18853;45.426;9.206;2022-09-01T06:47:26;28.40;49.00
32394;DHT22;18853;45.426;9.206;2022-09-01T06:49:53;28.40;48.90
32394;DHT22;18853;45.426;9.206;2022-09-01T06:52:23;28.40;48.50
32394;DHT22;18853;45.426;9.206;2022-09-01T06:54:49;28.30;48.80
32394;DHT22;18853;45.426;9.206;2022-09-01T06:57:17;28.30;48.70
32394;DHT22;18853;45.426;9.206;2022-09-01T06:59:43;28.40;48.70
32394;DHT22;18853;45.426;9.206;2022-09-01T07:02:08;28.30;48.80
32394;DHT22;18853;45.426;9.206;2022-09-01T07:04:40;28.30;48.60
32394;DHT22;18853;45.426;9.206;2022-09-01T07:07:08;28.30;48.50
32394;DHT22;18853;45.426;9.206;2022-09-01T07:09:34;28.30;48.60
32394;DHT22;18853;45.426;9.206;2022-09-01T07:12:00;28.40;48.40
32394;DHT22;18853;45.426;9.206;2022-09-01T07:14:28;28.40;48.80
32394;DHT22;18853;45.426;9.206;2022-09-01T07:16:54;28.50;48.70
32394;DHT22;18853;45.426;9.206;2022-09-01T07:19:20;28.50;49.10
32394;DHT22;18853;45.426;9.206;2022-09-01T07:21:45;28.50;49.20
32394;DHT22;18853;45.426;9.206;2022-09-01T07:24:11;28.50;49.10
32394;DHT22;18853;45.426;9.206;2022-09-01T07:26:37;28.60;49.60
32394;DHT22;18853;45.426;9.206;2022-09-01T07:29:04;28.50;49.20
32394;DHT22;18853;45.426;9.206;2022-09-01T07:31:31;28.50;49.10
32394;DHT22;18853;45.426;9.206;2022-09-01T07:34:00;28.50;49.00
32394;DHT22;18853;45.426;9.206;2022-09-01T07:36:26;28.50;48.90
32394;DHT22;18853;45.426;9.206;2022-09-01T07:38:51;28.50;48.90
32394;DHT22;18853;45.426;9.206;2022-09-01T07:41:21;28.60;49.10
32394;DHT22;18853;45.426;9.206;2022-09-01T07:43:47;28.60;48.90
32394;DHT22;18853;45.426;9.206;2022-09-01T07:46:17;28.60;48.80
32394;DHT22;18853;45.426;9.206;2022-09-01T07:48:43;28.60;49.00
32394;DHT22;18853;45.426;9.206;2022-09-01T07:51:10;28.60;49.50
32394;DHT22;18853;45.426;9.206;2022-09-01T07:53:37;28.60;48.80
32394;DHT22;18853;45.426;9.206;2022-09-01T07:56:07;28.60;48.90
32394;DHT22;18853;45.426;9.206;2022-09-01T07:58:34;28.70;48.80
32394;DHT22;18853;45.426;9.206;2022-09-01T08:01:00;28.70;48.90
32394;DHT22;18853;45.426;9.206;2022-09-01T08:03:27;28.70;49.10
32394;DHT22;18853;45.426;9.206;2022-09-01T08:05:53;28.70;49.00
32394;DHT22;18853;45.426;9.206;2022-09-01T08:08:22;28.60;49.00
32394;DHT22;18853;45.426;9.206;2022-09-01T08:10:48;28.50;49.20
32394;DHT22;18853;45.426;9.206;2022-09-01T08:13:13;28.50;49.30
32394;DHT22;18853;45.426;9.206;2022-09-01T08:15:39;28.60;49.50
32394;DHT22;18853;45.426;9.206;2022-09-01T08:18:05;28.60;49.30
32394;DHT22;18853;45.426;9.206;2022-09-01T08:20:31;28.60;49.70
32394;DHT22;18853;45.426;9.206;2022-09-01T08:22:59;28.60;49.70
32394;DHT22;18853;45.426;9.206;2022-09-01T08:25:25;28.60;49.70
32394;DHT22;18853;45.426;9.206;2022-09-01T08:27:51;28.60;49.70
32394;DHT22;18853;45.426;9.206;2022-09-01T08:30:17;28.50;49.90
32394;DHT22;18853;45.426;9.206;2022-09-01T08:32:43;28.50;50.50
32394;DHT22;18853;45.426;9.206;2022-09-01T08:35:09;28.50;50.00
32394;DHT22;18853;45.426;9.206;2022-09-01T08:37:35;28.50;50.10
32394;DHT22;18853;45.426;9.206;2022-09-01T08:40:01;28.60;50.00
32394;DHT22;18853;45.426;9.206;2022-09-01T08:45:32;28.40;49.90
32394;DHT22;18853;45.426;9.206;2022-09-01T08:48:08;28.40;50.20
32394;DHT22;18853;45.426;9.206;2022-09-01T08:50:37;28.40;50.30
32394;DHT22;18853;45.426;9.206;2022-09-01T08:53:04;28.50;50.40
32394;DHT22;18853;45.426;9.206;2022-09-01T08:55:34;28.50;50.10
32394;DHT22;18853;45.426;9.206;2022-09-01T08:58:02;28.60;50.20
32394;DHT22;18853;45.426;9.206;2022-09-01T09:00:32;28.70;50.20
32394;DHT22;18853;45.426;9.206;2022-09-01T09:05:34;28.80;50.00
32394;DHT22;18853;45.426;9.206;2022-09-01T09:10:41;29.00;49.80
32394;DHT22;18853;45.426;9.206;2022-09-01T09:13:32;29.20;49.70
32394;DHT22;18853;45.426;9.206;2022-09-01T09:16:01;29.20;49.80
32394;DHT22;18853;45.426;9.206;2022-09-01T09:20:56;29.20;49.80
32394;DHT22;18853;45.426;9.206;2022-09-01T09:23:29;29.20;50.00
32394;DHT22;18853;45.426;9.206;2022-09-01T09:25:55;29.10;49.50
32394;DHT22;18853;45.426;9.206;2022-09-01T09:28:21;29.10;49.80
32394;DHT22;18853;45.426;9.206;2022-09-01T09:30:47;29.10;49.80
32394;DHT22;18853;45.426;9.206;2022-09-01T09:33:32;29.10;49.80
32394;DHT22;18853;45.426;9.206;2022-09-01T09:36:14;29.10;49.90
32394;DHT22;18853;45.426;9.206;2022-09-01T09:38:40;29.10;49.20
32394;DHT22;18853;45.426;9.206;2022-09-01T09:41:07;29.10;49.40
32394;DHT22;18853;45.426;9.206;2022-09-01T09:43:44;29.10;49.40
32394;DHT22;18853;45.426;9.206;2022-09-01T09:46:24;29.10;49.40
32394;DHT22;18853;45.426;9.206;2022-09-01T09:49:10;29.10;49.40
32394;DHT22;18853;45.426;9.206;2022-09-01T09:51:40;29.20;49.30
32394;DHT22;18853;45.426;9.206;2022-09-01T09:54:24;29.20;49.10
32394;DHT22;18853;45.426;9.206;2022-09-01T09:59:40;29.30;49.10
32394;DHT22;18853;45.426;9.206;2022-09-01T10:04:40;29.50;48.80
32394;DHT22;18853;45.426;9.206;2022-09-01T10:09:49;29.50;49.00
32394;DHT22;18853;45.426;9.206;2022-09-01T10:12:15;29.40;49.20
32394;DHT22;18853;45.426;9.206;2022-09-01T10:14:41;29.40;48.90
32394;DHT22;18853;45.426;9.206;2022-09-01T10:17:20;29.40;48.60
32394;DHT22;18853;45.426;9.206;2022-09-01T10:19:50;29.40;48.60
32394;DHT22;18853;45.426;9.206;2022-09-01T10:22:18;29.50;48.50
32394;DHT22;18853;45.426;9.206;2022-09-01T10:24:44;29.60;47.90
32394;DHT22;18853;45.426;9.206;2022-09-01T10:27:19;29.60;47.20
32394;DHT22;18853;45.426;9.206;2022-09-01T10:29:50;29.60;47.40
32394;DHT22;18853;45.426;9.206;2022-09-01T10:32:22;29.60;47.50
32394;DHT22;18853;45.426;9.206;2022-09-01T10:34:49;29.50;47.50
32394;DHT22;18853;45.426;9.206;2022-09-01T10:37:15;29.60;47.70
32394;DHT22;18853;45.426;9.206;2022-09-01T10:42:25;29.60;47.80
32394;DHT22;18853;45.426;9.206;2022-09-01T10:44:57;29.60;47.90
32394;DHT22;18853;45.426;9.206;2022-09-01T10:47:27;29.60;47.60
32394;DHT22;18853;45.426;9.206;2022-09-01T10:55:05;29.80;47.60
32394;DHT22;18853;45.426;9.206;2022-09-01T10:57:45;29.80;46.30
32394;DHT22;18853;45.426;9.206;2022-09-01T11:05:34;29.80;46.80
32394;DHT22;18853;45.426;9.206;2022-09-01T11:08:20;29.90;47.30
32394;DHT22;18853;45.426;9.206;2022-09-01T11:11:34;29.90;47.30
32394;DHT22;18853;45.426;9.206;2022-09-01T11:13:38;30.00;47.50
32394;DHT22;18853;45.426;9.206;2022-09-01T11:16:24;30.00;47.10
32394;DHT22;18853;45.426;9.206;2022-09-01T11:18:51;30.10;47.00
32394;DHT22;18853;45.426;9.206;2022-09-01T11:21:27;30.20;46.80
32394;DHT22;18853;45.426;9.206;2022-09-01T11:26:44;30.30;46.20
32394;DHT22;18853;45.426;9.206;2022-09-01T11:29:48;30.30;46.10
32394;DHT22;18853;45.426;9.206;2022-09-01T11:31:55;30.30;45.90
32394;DHT22;18853;45.426;9.206;2022-09-01T11:34:22;30.30;46.20
32394;DHT22;18853;45.426;9.206;2022-09-01T11:36:58;30.40;45.50
32394;DHT22;18853;45.426;9.206;2022-09-01T11:39:32;30.40;44.90
32394;DHT22;18853;45.426;9.206;2022-09-01T11:42:17;30.50;44.40
32394;DHT22;18853;45.426;9.206;2022-09-01T11:47:13;30.50;44.50
32394;DHT22;18853;45.426;9.206;2022-09-01T11:50:03;30.50;44.60
32394;DHT22;18853;45.426;9.206;2022-09-01T11:52:28;30.40;44.80
32394;DHT22;18853;45.426;9.206;2022-09-01T11:54:54;30.40;44.50
32394;DHT22;18853;45.426;9.206;2022-09-01T11:57:22;30.30;44.80
32394;DHT22;18853;45.426;9.206;2022-09-01T11:59:48;30.20;45.20
32394;DHT22;18853;45.426;9.206;2022-09-01T12:02:18;30.20;45.60
32394;DHT22;18853;45.426;9.206;2022-09-01T12:04:45;30.20;45.90
32394;DHT22;18853;45.426;9.206;2022-09-01T12:07:12;30.20;46.10
32394;DHT22;18853;45.426;9.206;2022-09-01T12:09:41;30.20;45.30
32394;DHT22;18853;45.426;9.206;2022-09-01T12:12:07;30.30;45.50
32394;DHT22;18853;45.426;9.206;2022-09-01T12:14:56;30.30;45.60
32394;DHT22;18853;45.426;9.206;2022-09-01T12:17:22;30.40;46.00
32394;DHT22;18853;45.426;9.206;2022-09-01T12:19:48;30.50;45.70
32394;DHT22;18853;45.426;9.206;2022-09-01T12:22:14;30.80;45.40
32394;DHT22;18853;45.426;9.206;2022-09-01T12:24:45;30.90;44.80
32394;DHT22;18853;45.426;9.206;2022-09-01T12:27:11;31.10;44.50
32394;DHT22;18853;45.426;9.206;2022-09-01T12:29:37;31.20;44.40
32394;DHT22;18853;45.426;9.206;2022-09-01T12:32:03;31.20;43.70
32394;DHT22;18853;45.426;9.206;2022-09-01T12:37:39;31.20;42.80
32394;DHT22;18853;45.426;9.206;2022-09-01T12:39:47;31.30;43.30
32394;DHT22;18853;45.426;9.206;2022-09-01T12:49:59;31.60;40.80
32394;DHT22;18853;45.426;9.206;2022-09-01T12:52:25;31.70;41.30
32394;DHT22;18853;45.426;9.206;2022-09-01T12:54:52;31.70;41.40
32394;DHT22;18853;45.426;9.206;2022-09-01T12:57:23;31.80;41.50
32394;DHT22;18853;45.426;9.206;2022-09-01T13:00:04;31.90;40.70
32394;DHT22;18853;45.426;9.206;2022-09-01T13:02:35;31.90;40.80
32394;DHT22;18853;45.426;9.206;2022-09-01T13:07:45;31.90;40.80
32394;DHT22;18853;45.426;9.206;2022-09-01T13:10:10;32.00;40.30
32394;DHT22;18853;45.426;9.206;2022-09-01T13:12:42;32.00;39.70
32394;DHT22;18853;45.426;9.206;2022-09-01T13:15:08;31.90;39.90
32394;DHT22;18853;45.426;9.206;2022-09-01T13:17:33;31.90;39.70
32394;DHT22;18853;45.426;9.206;2022-09-01T13:19:59;32.00;39.60
32394;DHT22;18853;45.426;9.206;2022-09-01T13:22:24;32.00;39.90
32394;DHT22;18853;45.426;9.206;2022-09-01T13:24:50;32.10;39.60
32394;DHT22;18853;45.426;9.206;2022-09-01T13:27:16;32.20;39.60
32394;DHT22;18853;45.426;9.206;2022-09-01T13:29:41;32.30;40.10
32394;DHT22;18853;45.426;9.206;2022-09-01T13:32:07;32.40;39.30
32394;DHT22;18853;45.426;9.206;2022-09-01T13:34:33;32.40;39.40
32394;DHT22;18853;45.426;9.206;2022-09-01T13:36:59;32.50;39.30
32394;DHT22;18853;45.426;9.206;2022-09-01T13:39:24;32.60;38.90
32394;DHT22;18853;45.426;9.206;2022-09-01T13:41:50;32.50;38.90
32394;DHT22;18853;45.426;9.206;2022-09-01T13:44:16;32.40;38.90
32394;DHT22;18853;45.426;9.206;2022-09-01T13:46:42;32.30;39.80
32394;DHT22;18853;45.426;9.206;2022-09-01T13:49:08;32.50;39.10
32394;DHT22;18853;45.426;9.206;2022-09-01T13:51:34;32.60;38.10
32394;DHT22;18853;45.426;9.206;2022-09-01T13:54:01;32.80;38.00
32394;DHT22;18853;45.426;9.206;2022-09-01T13:56:27;32.90;38.30
32394;DHT22;18853;45.426;9.206;2022-09-01T13:58:52;32.90;37.70
32394;DHT22;18853;45.426;9.206;2022-09-01T14:01:18;32.90;38.20
32394;DHT22;18853;45.426;9.206;2022-09-01T14:03:43;33.00;38.70
32394;DHT22;18853;45.426;9.206;2022-09-01T14:06:09;33.00;37.80
32394;DHT22;18853;45.426;9.206;2022-09-01T14:08:34;33.10;38.30
32394;DHT22;18853;45.426;9.206;2022-09-01T14:11:00;33.30;37.80
32394;DHT22;18853;45.426;9.206;2022-09-01T14:13:26;33.40;37.00
32394;DHT22;18853;45.426;9.206;2022-09-01T14:15:52;33.50;36.40
32394;DHT22;18853;45.426;9.206;2022-09-01T14:18:18;33.70;36.60
32394;DHT22;18853;45.426;9.206;2022-09-01T14:20:45;33.80;37.10
32394;DHT22;18853;45.426;9.206;2022-09-01T14:23:11;33.80;36.30
32394;DHT22;18853;45.426;9.206;2022-09-01T14:25:41;33.90;35.90
32394;DHT22;18853;45.426;9.206;2022-09-01T14:28:07;34.10;36.40
32394;DHT22;18853;45.426;9.206;2022-09-01T14:30:32;34.00;36.20
32394;DHT22;18853;45.426;9.206;2022-09-01T14:32:58;33.90;36.00
32394;DHT22;18853;45.426;9.206;2022-09-01T14:35:24;33.90;35.30
32394;DHT22;18853;45.426;9.206;2022-09-01T14:37:51;33.90;35.50
32394;DHT22;18853;45.426;9.206;2022-09-01T14:40:17;34.00;35.30
32394;DHT22;18853;45.426;9.206;2022-09-01T14:42:45;34.00;35.50
32394;DHT22;18853;45.426;9.206;2022-09-01T14:45:17;34.10;34.90
32394;DHT22;18853;45.426;9.206;2022-09-01T14:47:43;34.10;34.00
32394;DHT22;18853;45.426;9.206;2022-09-01T14:50:08;34.20;34.30
32394;DHT22;18853;45.426;9.206;2022-09-01T14:52:34;34.20;34.50
32394;DHT22;18853;45.426;9.206;2022-09-01T14:55:01;34.20;34.30
32394;DHT22;18853;45.426;9.206;2022-09-01T14:57:27;34.20;33.10
32394;DHT22;18853;45.426;9.206;2022-09-01T14:59:52;34.10;33.20
32394;DHT22;18853;45.426;9.206;2022-09-01T15:02:18;34.10;33.80
32394;DHT22;18853;45.426;9.206;2022-09-01T15:04:43;34.20;34.50
32394;DHT22;18853;45.426;9.206;2022-09-01T15:07:09;34.20;33.80
32394;DHT22;18853;45.426;9.206;2022-09-01T15:09:35;34.30;33.90
32394;DHT22;18853;45.426;9.206;2022-09-01T15:12:01;34.30;33.60
32394;DHT22;18853;45.426;9.206;2022-09-01T15:14:27;34.40;33.00
32394;DHT22;18853;45.426;9.206;2022-09-01T15:16:52;34.40;32.50
32394;DHT22;18853;45.426;9.206;2022-09-01T15:19:18;34.50;33.00
32394;DHT22;18853;45.426;9.206;2022-09-01T15:21:44;34.20;32.70
32394;DHT22;18853;45.426;9.206;2022-09-01T15:24:10;34.00;33.20
32394;DHT22;18853;45.426;9.206;2022-09-01T15:26:36;33.80;32.80
32394;DHT22;18853;45.426;9.206;2022-09-01T15:29:02;33.70;33.30
32394;DHT22;18853;45.426;9.206;2022-09-01T15:31:29;33.80;33.70
32394;DHT22;18853;45.426;9.206;2022-09-01T15:33:57;34.00;33.60
32394;DHT22;18853;45.426;9.206;2022-09-01T15:36:24;34.20;33.40
32394;DHT22;18853;45.426;9.206;2022-09-01T15:38:50;34.40;33.70
32394;DHT22;18853;45.426;9.206;2022-09-01T15:41:21;34.40;33.20
32394;DHT22;18853;45.426;9.206;2022-09-01T15:43:47;34.40;33.70
32394;DHT22;18853;45.426;9.206;2022-09-01T15:46:12;34.40;33.10
32394;DHT22;18853;45.426;9.206;2022-09-01T15:48:39;34.50;33.40
32394;DHT22;18853;45.426;9.206;2022-09-01T15:53:33;34.80;32.70
32394;DHT22;18853;45.426;9.206;2022-09-01T15:55:59;34.90;32.30
32394;DHT22;18853;45.426;9.206;2022-09-01T15:58:24;35.00;32.00
32394;DHT22;18853;45.426;9.206;2022-09-01T16:00:50;35.00;32.20
32394;DHT22;18853;45.426;9.206;2022-09-01T16:03:15;35.00;31.90
32394;DHT22;18853;45.426;9.206;2022-09-01T16:05:41;35.00;31.90
32394;DHT22;18853;45.426;9.206;2022-09-01T16:08:07;35.10;31.30
32394;DHT22;18853;45.426;9.206;2022-09-01T16:10:34;35.10;31.50
32394;DHT22;18853;45.426;9.206;2022-09-01T16:13:00;35.00;31.30
32394;DHT22;18853;45.426;9.206;2022-09-01T16:15:26;34.90;31.50
32394;DHT22;18853;45.426;9.206;2022-09-01T16:21:03;34.80;32.50
32394;DHT22;18853;45.426;9.206;2022-09-01T16:23:11;34.80;31.90
32394;DHT22;18853;45.426;9.206;2022-09-01T16:25:37;34.80;32.30
32394;DHT22;18853;45.426;9.206;2022-09-01T16:28:05;34.80;32.50
32394;DHT22;18853;45.426;9.206;2022-09-01T16:30:32;34.70;31.90